sensor_id;sensor_type;location;lat;lon;timestamp;temperature;humidity
23540;DHT22;11947;50.810;4.394;2023-11-21T00:00:48;10.10;99.90
23540;DHT22;11947;50.810;4.394;2023-11-21T00:03:13;10.20;99.90
23540;DHT22;11947;50.810;4.394;2023-11-21T00:05:40;10.10;99.90
23540;DHT22;11947;50.810;4.394;2023-11-21T00:08:08;10.10;99.90
23540;DHT22;11947;50.810;4.394;2023-11-21T00:10:34;10.20;99.90
23540;DHT22;11947;50.810;4.394;2023-11-21T00:13:00;10.20;99.90
23540;DHT22;11947;50.810;4.394;2023-11-21T00:15:27;10.10;99.90
23540;DHT22;11947;50.810;4.394;2023-11-21T00:17:53;10.10;99.90
23540;DHT22;11947;50.810;4.394;2023-11-21T00:20:18;10.10;99.90
23540;DHT22;11947;50.810;4.394;2023-11-21T00:22:44;10.10;99.90
23540;DHT22;11947;50.810;4.394;2023-11-21T00:25:10;10.20;99.90
23540;DHT22;11947;50.810;4.394;2023-11-21T00:27:36;10.20;99.90
23540;DHT22;11947;50.810;4.394;2023-11-21T00:30:03;10.30;99.90
23540;DHT22;11947;50.810;4.394;2023-11-21T00:32:30;10.10;99.90
23540;DHT22;11947;50.810;4.394;2023-11-21T00:34:55;10.10;99.90
23540;DHT22;11947;50.810;4.394;2023-11-21T00:37:21;10.00;99.90
23540;DHT22;11947;50.810;4.394;2023-11-21T00:39:47;10.10;99.90
23540;DHT22;11947;50.810;4.394;2023-11-21T00:42:12;10.20;99.90
23540;DHT22;11947;50.810;4.394;2023-11-21T00:44:38;10.00;99.90
23540;DHT22;11947;50.810;4.394;2023-11-21T00:47:05;10.00;99.90
23540;DHT22;11947;50.810;4.394;2023-11-21T00:49:31;10.10;99.90
23540;DHT22;11947;50.810;4.394;2023-11-21T00:51:57;10.10;99.90
23540;DHT22;11947;50.810;4.394;2023-11-21T00:54:23;10.20;99.90
23540;DHT22;11947;50.810;4.394;2023-11-21T00:56:49;10.30;99.90
23540;DHT22;11947;50.810;4.394;2023-11-21T00:59:14;10.00;99.90
23540;DHT22;11947;50.810;4.394;2023-11-21T01:01:40;10.10;99.90
23540;DHT22;11947;50.810;4.394;2023-11-21T01:04:06;10.10;99.90
23540;DHT22;11947;50.810;4.394;2023-11-21T01:06:32;10.10;99.90
23540;DHT22;11947;50.810;4.394;2023-11-21T01:08:58;10.00;99.90
23540;DHT22;11947;50.810;4.394;2023-11-21T01:11:24;9.90;99.90
23540;DHT22;11947;50.810;4.394;2023-11-21T01:13:49;9.70;99.90
23540;DHT22;11947;50.810;4.394;2023-11-21T01:16:15;9.80;99.90
23540;DHT22;11947;50.810;4.394;2023-11-21T01:18:41;9.80;99.90
23540;DHT22;11947;50.810;4.394;2023-11-21T01:21:06;9.80;99.90
23540;DHT22;11947;50.810;4.394;2023-11-21T01:23:33;9.90;99.90
23540;DHT22;11947;50.810;4.394;2023-11-21T01:25:58;9.80;99.90
23540;DHT22;11947;50.810;4.394;2023-11-21T01:28:24;9.90;99.90
23540;DHT22;11947;50.810;4.394;2023-11-21T01:30:49;9.80;99.90
23540;DHT22;11947;50.810;4.394;2023-11-21T01:33:15;9.80;99.90
23540;DHT22;11947;50.810;4.394;2023-11-21T01:35:41;9.80;99.90
23540;DHT22;11947;50.810;4.394;2023-11-21T01:38:07;9.70;99.90
23540;DHT22;11947;50.810;4.394;2023-11-21T01:40:36;9.70;99.90
23540;DHT22;11947;50.810;4.394;2023-11-21T01:43:01;9.80;99.90
23540;DHT22;11947;50.810;4.394;2023-11-21T01:45:30;9.80;99.90
23540;DHT22;11947;50.810;4.394;2023-11-21T01:47:59;10.00;99.90
23540;DHT22;11947;50.810;4.394;2023-11-21T01:50:26;9.90;99.90
23540;DHT22;11947;50.810;4.394;2023-11-21T01:52:52;9.80;99.90
23540;DHT22;11947;50.810;4.394;2023-11-21T01:55:18;9.90;99.90
23540;DHT22;11947;50.810;4.394;2023-11-21T01:57:45;9.80;99.90
23540;DHT22;11947;50.810;4.394;2023-11-21T02:00:11;10.00;99.90
23540;DHT22;11947;50.810;4.394;2023-11-21T02:02:45;9.90;99.90
23540;DHT22;11947;50.810;4.394;2023-11-21T02:05:11;9.90;99.90
23540;DHT22;11947;50.810;4.394;2023-11-21T02:07:44;9.90;99.90
23540;DHT22;11947;50.810;4.394;2023-11-21T02:10:10;10.00;99.90
23540;DHT22;11947;50.810;4.394;2023-11-21T02:12:43;10.10;99.90
23540;DHT22;11947;50.810;4.394;2023-11-21T02:15:12;9.90;99.90
23540;DHT22;11947;50.810;4.394;2023-11-21T02:17:49;10.00;99.90
23540;DHT22;11947;50.810;4.394;2023-11-21T02:20:20;10.00;99.90
23540;DHT22;11947;50.810;4.394;2023-11-21T02:25:15;10.00;99.90
23540;DHT22;11947;50.810;4.394;2023-11-21T02:27:41;10.00;99.90
23540;DHT22;11947;50.810;4.394;2023-11-21T02:30:07;9.90;99.90
23540;DHT22;11947;50.810;4.394;2023-11-21T02:32:37;9.90;99.90
23540;DHT22;11947;50.810;4.394;2023-11-21T02:35:04;10.10;99.90
23540;DHT22;11947;50.810;4.394;2023-11-21T02:37:33;10.00;99.90
23540;DHT22;11947;50.810;4.394;2023-11-21T02:39:59;10.10;99.90
23540;DHT22;11947;50.810;4.394;2023-11-21T02:42:35;10.10;99.90
23540;DHT22;11947;50.810;4.394;2023-11-21T02:45:01;10.10;99.90
23540;DHT22;11947;50.810;4.394;2023-11-21T02:47:26;10.10;99.90
23540;DHT22;11947;50.810;4.394;2023-11-21T02:49:52;10.00;99.90
23540;DHT22;11947;50.810;4.394;2023-11-21T02:52:18;10.20;99.90
23540;DHT22;11947;50.810;4.394;2023-11-21T02:54:44;10.00;99.90
23540;DHT22;11947;50.810;4.394;2023-11-21T02:57:10;10.10;99.90
23540;DHT22;11947;50.810;4.394;2023-11-21T02:59:35;10.00;99.90
23540;DHT22;11947;50.810;4.394;2023-11-21T03:02:01;10.00;99.90
23540;DHT22;11947;50.810;4.394;2023-11-21T03:04:27;10.20;99.90
23540;DHT22;11947;50.810;4.394;2023-11-21T03:06:52;10.00;99.90
23540;DHT22;11947;50.810;4.394;2023-11-21T03:09:18;10.20;99.90
23540;DHT22;11947;50.810;4.394;2023-11-21T03:11:43;10.30;99.90
23540;DHT22;11947;50.810;4.394;2023-11-21T03:14:09;10.30;99.90
23540;DHT22;11947;50.810;4.394;2023-11-21T03:16:36;10.10;99.90
23540;DHT22;11947;50.810;4.394;2023-11-21T03:19:03;10.10;99.90
23540;DHT22;11947;50.810;4.394;2023-11-21T03:21:30;10.10;99.90
23540;DHT22;11947;50.810;4.394;2023-11-21T03:23:56;10.10;99.90
23540;DHT22;11947;50.810;4.394;2023-11-21T03:26:22;10.10;99.90
23540;DHT22;11947;50.810;4.394;2023-11-21T03:28:47;10.10;99.90
23540;DHT22;11947;50.810;4.394;2023-11-21T03:31:13;10.10;99.90
23540;DHT22;11947;50.810;4.394;2023-11-21T03:33:39;10.10;99.90
23540;DHT22;11947;50.810;4.394;2023-11-21T03:36:04;10.00;99.90
23540;DHT22;11947;50.810;4.394;2023-11-21T03:38:30;9.80;99.90
23540;DHT22;11947;50.810;4.394;2023-11-21T03:40:55;9.90;99.90
23540;DHT22;11947;50.810;4.394;2023-11-21T03:43:21;9.90;99.90
23540;DHT22;11947;50.810;4.394;2023-11-21T03:45:47;10.00;99.90
23540;DHT22;11947;50.810;4.394;2023-11-21T03:48:13;9.90;99.90
23540;DHT22;11947;50.810;4.394;2023-11-21T03:50:38;9.90;99.90
23540;DHT22;11947;50.810;4.394;2023-11-21T03:53:04;10.00;99.90
23540;DHT22;11947;50.810;4.394;2023-11-21T03:55:30;10.00;99.90
23540;DHT22;11947;50.810;4.394;2023-11-21T03:57:57;10.00;99.90
23540;DHT22;11947;50.810;4.394;2023-11-21T04:00:23;10.20;99.90
23540;DHT22;11947;50.810;4.394;2023-11-21T04:02:49;10.10;99.90
23540;DHT22;11947;50.810;4.394;2023-11-21T04:05:17;10.10;99.90
23540;DHT22;11947;50.810;4.394;2023-11-21T04:07:42;10.10;99.90
23540;DHT22;11947;50.810;4.394;2023-11-21T04:10:09;10.10;99.90
23540;DHT22;11947;50.810;4.394;2023-11-21T04:12:35;10.10;99.90
23540;DHT22;11947;50.810;4.394;2023-11-21T04:15:02;10.10;99.90
23540;DHT22;11947;50.810;4.394;2023-11-21T04:17:28;10.20;99.90
23540;DHT22;11947;50.810;4.394;2023-11-21T04:19:53;10.10;99.90
23540;DHT22;11947;50.810;4.394;2023-11-21T04:22:19;10.20;99.90
23540;DHT22;11947;50.810;4.394;2023-11-21T04:24:44;10.20;99.90
23540;DHT22;11947;50.810;4.394;2023-11-21T04:27:10;10.10;99.90
23540;DHT22;11947;50.810;4.394;2023-11-21T04:29:35;10.10;99.90
23540;DHT22;11947;50.810;4.394;2023-11-21T04:32:01;10.20;99.90
23540;DHT22;11947;50.810;4.394;2023-11-21T04:34:28;10.10;99.90
23540;DHT22;11947;50.810;4.394;2023-11-21T04:36:56;10.10;99.90
23540;DHT22;11947;50.810;4.394;2023-11-21T04:39:23;10.20;99.90
23540;DHT22;11947;50.810;4.394;2023-11-21T04:41:49;10.20;99.90
23540;DHT22;11947;50.810;4.394;2023-11-21T04:44:15;10.10;99.90
23540;DHT22;11947;50.810;4.394;2023-11-21T04:46:42;10.20;99.90
23540;DHT22;11947;50.810;4.394;2023-11-21T04:49:07;10.00;99.90
23540;DHT22;11947;50.810;4.394;2023-11-21T04:51:33;10.00;99.90
23540;DHT22;11947;50.810;4.394;2023-11-21T04:53:59;10.10;99.90
23540;DHT22;11947;50.810;4.394;2023-11-21T04:56:25;10.20;99.90
23540;DHT22;11947;50.810;4.394;2023-11-21T04:58:50;10.20;99.90
23540;DHT22;11947;50.810;4.394;2023-11-21T05:01:16;10.10;99.90
23540;DHT22;11947;50.810;4.394;2023-11-21T05:03:42;10.10;99.90
23540;DHT22;11947;50.810;4.394;2023-11-21T05:06:09;10.10;99.90
23540;DHT22;11947;50.810;4.394;2023-11-21T05:08:35;10.10;99.90
23540;DHT22;11947;50.810;4.394;2023-11-21T05:11:02;10.10;99.90
23540;DHT22;11947;50.810;4.394;2023-11-21T05:13:28;10.10;99.90
23540;DHT22;11947;50.810;4.394;2023-11-21T05:15:57;10.10;99.90
23540;DHT22;11947;50.810;4.394;2023-11-21T05:18:23;10.10;99.90
23540;DHT22;11947;50.810;4.394;2023-11-21T05:20:48;10.10;99.90
23540;DHT22;11947;50.810;4.394;2023-11-21T05:23:14;10.20;99.90
23540;DHT22;11947;50.810;4.394;2023-11-21T05:25:39;10.10;99.90
23540;DHT22;11947;50.810;4.394;2023-11-21T05:28:06;10.10;99.90
23540;DHT22;11947;50.810;4.394;2023-11-21T05:30:32;10.10;99.90
23540;DHT22;11947;50.810;4.394;2023-11-21T05:32:58;10.20;99.90
23540;DHT22;11947;50.810;4.394;2023-11-21T05:35:23;10.20;99.90
23540;DHT22;11947;50.810;4.394;2023-11-21T05:37:49;10.10;99.90
23540;DHT22;11947;50.810;4.394;2023-11-21T05:40:15;10.20;99.90
23540;DHT22;11947;50.810;4.394;2023-11-21T05:42:41;10.20;99.90
23540;DHT22;11947;50.810;4.394;2023-11-21T05:45:07;10.10;99.90
23540;DHT22;11947;50.810;4.394;2023-11-21T05:47:43;10.10;99.90
23540;DHT22;11947;50.810;4.394;2023-11-21T05:50:13;10.10;99.90
23540;DHT22;11947;50.810;4.394;2023-11-21T05:52:44;10.10;99.90
23540;DHT22;11947;50.810;4.394;2023-11-21T05:55:10;10.10;99.90
23540;DHT22;11947;50.810;4.394;2023-11-21T05:57:39;10.20;99.90
23540;DHT22;11947;50.810;4.394;2023-11-21T06:00:10;10.30;99.90
23540;DHT22;11947;50.810;4.394;2023-11-21T06:02:39;10.20;99.90
23540;DHT22;11947;50.810;4.394;2023-11-21T06:05:09;10.30;99.90
23540;DHT22;11947;50.810;4.394;2023-11-21T06:07:36;10.20;99.90
23540;DHT22;11947;50.810;4.394;2023-11-21T06:10:06;10.20;99.90
23540;DHT22;11947;50.810;4.394;2023-11-21T06:12:34;10.20;99.90
23540;DHT22;11947;50.810;4.394;2023-11-21T06:15:02;10.20;99.90
23540;DHT22;11947;50.810;4.394;2023-11-21T06:17:30;10.30;99.90
23540;DHT22;11947;50.810;4.394;2023-11-21T06:19:56;10.20;99.90
23540;DHT22;11947;50.810;4.394;2023-11-21T06:22:22;10.10;99.90
23540;DHT22;11947;50.810;4.394;2023-11-21T06:24:48;10.20;99.90
23540;DHT22;11947;50.810;4.394;2023-11-21T06:27:13;10.30;99.90
23540;DHT22;11947;50.810;4.394;2023-11-21T06:29:39;10.30;99.90
23540;DHT22;11947;50.810;4.394;2023-11-21T06:32:05;10.30;99.90
23540;DHT22;11947;50.810;4.394;2023-11-21T06:34:31;10.20;99.90
23540;DHT22;11947;50.810;4.394;2023-11-21T06:36:56;10.30;99.90
23540;DHT22;11947;50.810;4.394;2023-11-21T06:39:22;10.10;99.90
23540;DHT22;11947;50.810;4.394;2023-11-21T06:41:49;10.20;99.90
23540;DHT22;11947;50.810;4.394;2023-11-21T06:44:15;10.30;99.90
23540;DHT22;11947;50.810;4.394;2023-11-21T06:46:40;10.30;99.90
23540;DHT22;11947;50.810;4.394;2023-11-21T06:49:08;10.20;99.90
23540;DHT22;11947;50.810;4.394;2023-11-21T06:51:33;10.20;99.90
23540;DHT22;11947;50.810;4.394;2023-11-21T06:53:59;10.30;99.90
23540;DHT22;11947;50.810;4.394;2023-11-21T06:56:25;10.30;99.90
23540;DHT22;11947;50.810;4.394;2023-11-21T06:58:50;10.30;99.90
23540;DHT22;11947;50.810;4.394;2023-11-21T07:01:19;10.20;99.90
23540;DHT22;11947;50.810;4.394;2023-11-21T07:03:45;10.40;99.90
23540;DHT22;11947;50.810;4.394;2023-11-21T07:06:11;10.20;99.90
23540;DHT22;11947;50.810;4.394;2023-11-21T07:08:37;10.40;99.90
23540;DHT22;11947;50.810;4.394;2023-11-21T07:11:03;10.30;99.90
23540;DHT22;11947;50.810;4.394;2023-11-21T07:13:30;10.20;99.90
23540;DHT22;11947;50.810;4.394;2023-11-21T07:15:56;10.30;99.90
23540;DHT22;11947;50.810;4.394;2023-11-21T07:18:21;10.30;99.90
23540;DHT22;11947;50.810;4.394;2023-11-21T07:20:48;10.40;99.90
23540;DHT22;11947;50.810;4.394;2023-11-21T07:23:14;10.20;99.90
23540;DHT22;11947;50.810;4.394;2023-11-21T07:25:41;10.30;99.90
23540;DHT22;11947;50.810;4.394;2023-11-21T07:28:08;10.40;99.90
23540;DHT22;11947;50.810;4.394;2023-11-21T07:30:34;10.30;99.90
23540;DHT22;11947;50.810;4.394;2023-11-21T07:32:59;10.30;99.90
23540;DHT22;11947;50.810;4.394;2023-11-21T07:35:25;10.30;99.90
23540;DHT22;11947;50.810;4.394;2023-11-21T07:37:52;10.40;99.90
23540;DHT22;11947;50.810;4.394;2023-11-21T07:40:17;10.60;99.90
23540;DHT22;11947;50.810;4.394;2023-11-21T07:42:43;10.60;99.90
23540;DHT22;11947;50.810;4.394;2023-11-21T07:45:09;10.50;99.90
23540;DHT22;11947;50.810;4.394;2023-11-21T07:47:34;10.70;99.90
23540;DHT22;11947;50.810;4.394;2023-11-21T07:50:04;10.80;99.90
23540;DHT22;11947;50.810;4.394;2023-11-21T07:52:29;10.90;99.90
23540;DHT22;11947;50.810;4.394;2023-11-21T07:54:55;10.90;99.90
23540;DHT22;11947;50.810;4.394;2023-11-21T07:57:21;10.80;99.90
23540;DHT22;11947;50.810;4.394;2023-11-21T07:59:47;10.80;99.90
23540;DHT22;11947;50.810;4.394;2023-11-21T08:02:13;10.90;99.90
23540;DHT22;11947;50.810;4.394;2023-11-21T08:04:38;11.00;99.90
23540;DHT22;11947;50.810;4.394;2023-11-21T08:07:04;10.90;99.90
23540;DHT22;11947;50.810;4.394;2023-11-21T08:09:29;11.00;99.90
23540;DHT22;11947;50.810;4.394;2023-11-21T08:12:00;10.90;99.90
23540;DHT22;11947;50.810;4.394;2023-11-21T08:14:27;11.00;99.90
23540;DHT22;11947;50.810;4.394;2023-11-21T08:16:53;11.00;99.90
23540;DHT22;11947;50.810;4.394;2023-11-21T08:19:23;11.10;99.90
23540;DHT22;11947;50.810;4.394;2023-11-21T08:21:51;11.10;99.90
23540;DHT22;11947;50.810;4.394;2023-11-21T08:24:16;11.20;99.90
23540;DHT22;11947;50.810;4.394;2023-11-21T08:26:42;11.20;99.90
23540;DHT22;11947;50.810;4.394;2023-11-21T08:29:08;11.10;99.90
23540;DHT22;11947;50.810;4.394;2023-11-21T08:31:34;11.20;99.90
23540;DHT22;11947;50.810;4.394;2023-11-21T08:33:59;11.20;99.90
23540;DHT22;11947;50.810;4.394;2023-11-21T08:36:28;11.20;99.90
23540;DHT22;11947;50.810;4.394;2023-11-21T08:38:54;11.20;99.90
23540;DHT22;11947;50.810;4.394;2023-11-21T08:41:20;11.20;99.90
23540;DHT22;11947;50.810;4.394;2023-11-21T08:43:52;11.20;99.90
23540;DHT22;11947;50.810;4.394;2023-11-21T08:46:19;11.10;99.90
23540;DHT22;11947;50.810;4.394;2023-11-21T08:48:44;11.30;99.90
23540;DHT22;11947;50.810;4.394;2023-11-21T08:51:11;11.20;99.90
23540;DHT22;11947;50.810;4.394;2023-11-21T08:53:43;11.20;99.90
23540;DHT22;11947;50.810;4.394;2023-11-21T08:56:13;11.30;99.90
23540;DHT22;11947;50.810;4.394;2023-11-21T08:58:39;11.30;99.90
23540;DHT22;11947;50.810;4.394;2023-11-21T09:01:05;11.20;99.90
23540;DHT22;11947;50.810;4.394;2023-11-21T09:03:32;11.30;99.90
23540;DHT22;11947;50.810;4.394;2023-11-21T09:06:00;11.20;99.90
23540;DHT22;11947;50.810;4.394;2023-11-21T09:08:26;11.00;99.90
23540;DHT22;11947;50.810;4.394;2023-11-21T09:10:54;11.10;99.90
23540;DHT22;11947;50.810;4.394;2023-11-21T09:13:19;11.10;99.90
23540;DHT22;11947;50.810;4.394;2023-11-21T09:15:45;11.20;99.90
23540;DHT22;11947;50.810;4.394;2023-11-21T09:18:13;11.20;99.90
23540;DHT22;11947;50.810;4.394;2023-11-21T09:20:39;11.20;99.90
23540;DHT22;11947;50.810;4.394;2023-11-21T09:23:05;11.20;99.90
23540;DHT22;11947;50.810;4.394;2023-11-21T09:25:30;11.30;99.90
23540;DHT22;11947;50.810;4.394;2023-11-21T09:27:56;11.20;99.90
23540;DHT22;11947;50.810;4.394;2023-11-21T09:30:23;11.30;99.90
23540;DHT22;11947;50.810;4.394;2023-11-21T09:32:50;11.20;99.90
23540;DHT22;11947;50.810;4.394;2023-11-21T09:35:16;11.40;99.90
23540;DHT22;11947;50.810;4.394;2023-11-21T09:37:54;11.40;99.90
23540;DHT22;11947;50.810;4.394;2023-11-21T09:40:32;11.30;99.90
23540;DHT22;11947;50.810;4.394;2023-11-21T09:42:58;11.30;99.90
23540;DHT22;11947;50.810;4.394;2023-11-21T09:45:38;11.10;99.90
23540;DHT22;11947;50.810;4.394;2023-11-21T09:48:05;11.10;99.90
23540;DHT22;11947;50.810;4.394;2023-11-21T09:50:32;11.30;99.90
23540;DHT22;11947;50.810;4.394;2023-11-21T09:53:18;11.20;99.90
23540;DHT22;11947;50.810;4.394;2023-11-21T09:55:47;11.20;99.90
23540;DHT22;11947;50.810;4.394;2023-11-21T09:58:14;11.20;99.90
23540;DHT22;11947;50.810;4.394;2023-11-21T10:00:41;11.00;99.90
23540;DHT22;11947;50.810;4.394;2023-11-21T10:03:07;11.10;99.90
23540;DHT22;11947;50.810;4.394;2023-11-21T10:05:34;11.00;99.90
23540;DHT22;11947;50.810;4.394;2023-11-21T10:08:00;11.20;99.90
23540;DHT22;11947;50.810;4.394;2023-11-21T10:10:27;11.30;99.90
23540;DHT22;11947;50.810;4.394;2023-11-21T10:13:02;11.30;99.90
23540;DHT22;11947;50.810;4.394;2023-11-21T10:15:33;11.30;99.90
23540;DHT22;11947;50.810;4.394;2023-11-21T10:18:05;11.30;99.90
23540;DHT22;11947;50.810;4.394;2023-11-21T10:20:32;11.30;99.90
23540;DHT22;11947;50.810;4.394;2023-11-21T10:23:03;11.30;99.90
23540;DHT22;11947;50.810;4.394;2023-11-21T10:25:30;11.30;99.90
23540;DHT22;11947;50.810;4.394;2023-11-21T10:28:00;11.40;99.90
23540;DHT22;11947;50.810;4.394;2023-11-21T10:30:34;11.50;99.90
23540;DHT22;11947;50.810;4.394;2023-11-21T10:33:04;11.60;99.90
23540;DHT22;11947;50.810;4.394;2023-11-21T10:35:49;11.50;99.90
23540;DHT22;11947;50.810;4.394;2023-11-21T10:38:20;11.70;99.90
23540;DHT22;11947;50.810;4.394;2023-11-21T10:40:50;11.70;99.90
23540;DHT22;11947;50.810;4.394;2023-11-21T10:43:16;11.70;99.90
23540;DHT22;11947;50.810;4.394;2023-11-21T10:45:43;11.80;99.90
23540;DHT22;11947;50.810;4.394;2023-11-21T10:48:15;11.80;99.90
23540;DHT22;11947;50.810;4.394;2023-11-21T10:50:41;11.80;99.90
23540;DHT22;11947;50.810;4.394;2023-11-21T10:53:07;11.90;99.90
23540;DHT22;11947;50.810;4.394;2023-11-21T10:55:34;12.00;99.90
23540;DHT22;11947;50.810;4.394;2023-11-21T10:58:02;12.10;99.90
23540;DHT22;11947;50.810;4.394;2023-11-21T11:00:29;12.00;99.90
23540;DHT22;11947;50.810;4.394;2023-11-21T11:02:55;12.10;99.90
23540;DHT22;11947;50.810;4.394;2023-11-21T11:05:23;12.30;99.90
23540;DHT22;11947;50.810;4.394;2023-11-21T11:08:08;12.20;99.90
23540;DHT22;11947;50.810;4.394;2023-11-21T11:10:37;12.30;99.90
23540;DHT22;11947;50.810;4.394;2023-11-21T11:13:03;12.30;99.90
23540;DHT22;11947;50.810;4.394;2023-11-21T11:15:29;12.50;99.90
23540;DHT22;11947;50.810;4.394;2023-11-21T11:17:55;12.60;99.90
23540;DHT22;11947;50.810;4.394;2023-11-21T11:20:24;12.50;99.90
23540;DHT22;11947;50.810;4.394;2023-11-21T11:23:17;12.30;99.90
23540;DHT22;11947;50.810;4.394;2023-11-21T11:25:52;12.20;99.90
23540;DHT22;11947;50.810;4.394;2023-11-21T11:28:29;12.20;99.90
23540;DHT22;11947;50.810;4.394;2023-11-21T11:34:03;12.40;99.90
23540;DHT22;11947;50.810;4.394;2023-11-21T11:36:58;12.40;99.90
23540;DHT22;11947;50.810;4.394;2023-11-21T11:39:29;12.40;99.90
23540;DHT22;11947;50.810;4.394;2023-11-21T11:41:56;12.20;99.90
23540;DHT22;11947;50.810;4.394;2023-11-21T11:50:11;12.40;99.90
23540;DHT22;11947;50.810;4.394;2023-11-21T11:52:47;12.70;99.90
23540;DHT22;11947;50.810;4.394;2023-11-21T11:55:19;12.70;99.90
23540;DHT22;11947;50.810;4.394;2023-11-21T11:57:46;12.80;99.90
23540;DHT22;11947;50.810;4.394;2023-11-21T12:00:20;12.50;99.90
23540;DHT22;11947;50.810;4.394;2023-11-21T12:02:52;12.40;99.90
23540;DHT22;11947;50.810;4.394;2023-11-21T12:05:19;12.40;99.90
23540;DHT22;11947;50.810;4.394;2023-11-21T12:10:18;12.10;99.90
23540;DHT22;11947;50.810;4.394;2023-11-21T12:12:45;12.00;99.90
23540;DHT22;11947;50.810;4.394;2023-11-21T12:15:11;12.00;99.90
23540;DHT22;11947;50.810;4.394;2023-11-21T12:17:38;12.00;99.90
23540;DHT22;11947;50.810;4.394;2023-11-21T12:20:05;11.90;99.90
23540;DHT22;11947;50.810;4.394;2023-11-21T12:22:49;11.90;99.90
23540;DHT22;11947;50.810;4.394;2023-11-21T12:25:16;11.80;99.90
23540;DHT22;11947;50.810;4.394;2023-11-21T12:27:47;11.80;99.90
23540;DHT22;11947;50.810;4.394;2023-11-21T12:30:16;11.80;99.90
23540;DHT22;11947;50.810;4.394;2023-11-21T12:32:47;11.70;99.90
23540;DHT22;11947;50.810;4.394;2023-11-21T12:35:14;11.80;99.90
23540;DHT22;11947;50.810;4.394;2023-11-21T12:37:41;11.90;99.90
23540;DHT22;11947;50.810;4.394;2023-11-21T12:40:10;11.90;99.90
23540;DHT22;11947;50.810;4.394;2023-11-21T12:42:48;11.90;99.90
23540;DHT22;11947;50.810;4.394;2023-11-21T12:47:59;12.00;99.90
23540;DHT22;11947;50.810;4.394;2023-11-21T12:50:27;11.90;99.90
23540;DHT22;11947;50.810;4.394;2023-11-21T12:53:03;12.00;99.90
23540;DHT22;11947;50.810;4.394;2023-11-21T12:55:34;11.80;99.90
23540;DHT22;11947;50.810;4.394;2023-11-21T12:58:03;11.80;99.90
23540;DHT22;11947;50.810;4.394;2023-11-21T13:00:36;11.80;99.90
23540;DHT22;11947;50.810;4.394;2023-11-21T13:03:09;11.80;99.90
23540;DHT22;11947;50.810;4.394;2023-11-21T13:05:39;11.80;99.90
23540;DHT22;11947;50.810;4.394;2023-11-21T13:08:08;11.90;99.90
23540;DHT22;11947;50.810;4.394;2023-11-21T13:10:39;11.90;99.90
23540;DHT22;11947;50.810;4.394;2023-11-21T13:13:06;11.80;99.90
23540;DHT22;11947;50.810;4.394;2023-11-21T13:15:35;11.90;99.90
23540;DHT22;11947;50.810;4.394;2023-11-21T13:18:03;11.90;99.90
23540;DHT22;11947;50.810;4.394;2023-11-21T13:20:29;11.90;99.90
23540;DHT22;11947;50.810;4.394;2023-11-21T13:22:58;12.00;99.90
23540;DHT22;11947;50.810;4.394;2023-11-21T13:25:30;12.00;99.90
23540;DHT22;11947;50.810;4.394;2023-11-21T13:28:00;12.00;99.90
23540;DHT22;11947;50.810;4.394;2023-11-21T13:30:28;12.00;99.90
23540;DHT22;11947;50.810;4.394;2023-11-21T13:33:02;12.10;99.90
23540;DHT22;11947;50.810;4.394;2023-11-21T13:35:37;11.90;99.90
23540;DHT22;11947;50.810;4.394;2023-11-21T13:38:14;11.80;99.90
23540;DHT22;11947;50.810;4.394;2023-11-21T13:40:47;11.90;99.90
23540;DHT22;11947;50.810;4.394;2023-11-21T13:43:16;12.00;99.90
23540;DHT22;11947;50.810;4.394;2023-11-21T13:45:43;12.00;99.90
23540;DHT22;11947;50.810;4.394;2023-11-21T13:48:10;12.10;99.90
23540;DHT22;11947;50.810;4.394;2023-11-21T13:50:42;12.00;99.90
23540;DHT22;11947;50.810;4.394;2023-11-21T13:53:23;12.00;99.90
23540;DHT22;11947;50.810;4.394;2023-11-21T13:55:53;12.00;99.90
23540;DHT22;11947;50.810;4.394;2023-11-21T13:58:26;11.90;99.90
23540;DHT22;11947;50.810;4.394;2023-11-21T14:01:07;12.00;99.90
23540;DHT22;11947;50.810;4.394;2023-11-21T14:03:50;11.90;99.90
23540;DHT22;11947;50.810;4.394;2023-11-21T14:06:22;11.80;99.90
23540;DHT22;11947;50.810;4.394;2023-11-21T14:08:53;11.80;99.90
23540;DHT22;11947;50.810;4.394;2023-11-21T14:11:22;11.70;99.90
23540;DHT22;11947;50.810;4.394;2023-11-21T14:13:47;11.80;99.90
23540;DHT22;11947;50.810;4.394;2023-11-21T14:16:14;11.60;99.90
23540;DHT22;11947;50.810;4.394;2023-11-21T14:18:42;11.60;99.90
23540;DHT22;11947;50.810;4.394;2023-11-21T14:21:18;11.60;99.90
23540;DHT22;11947;50.810;4.394;2023-11-21T14:23:44;11.70;99.90
23540;DHT22;11947;50.810;4.394;2023-11-21T14:26:11;11.70;99.90
23540;DHT22;11947;50.810;4.394;2023-11-21T14:28:43;11.40;99.90
23540;DHT22;11947;50.810;4.394;2023-11-21T14:31:08;11.50;99.90
23540;DHT22;11947;50.810;4.394;2023-11-21T14:33:40;11.40;99.90
23540;DHT22;11947;50.810;4.394;2023-11-21T14:36:06;11.60;99.90
23540;DHT22;11947;50.810;4.394;2023-11-21T14:38:35;11.60;99.90
23540;DHT22;11947;50.810;4.394;2023-11-21T14:41:02;11.70;99.90
23540;DHT22;11947;50.810;4.394;2023-11-21T14:43:28;11.60;99.90
23540;DHT22;11947;50.810;4.394;2023-11-21T14:45:55;11.50;99.90
23540;DHT22;11947;50.810;4.394;2023-11-21T14:48:22;11.40;99.90
23540;DHT22;11947;50.810;4.394;2023-11-21T14:51:10;11.30;99.90
23540;DHT22;11947;50.810;4.394;2023-11-21T14:53:55;11.50;99.90
23540;DHT22;11947;50.810;4.394;2023-11-21T14:56:26;11.50;99.90
23540;DHT22;11947;50.810;4.394;2023-11-21T14:58:57;11.40;99.90
23540;DHT22;11947;50.810;4.394;2023-11-21T15:01:23;11.30;99.90
23540;DHT22;11947;50.810;4.394;2023-11-21T15:04:08;11.30;99.90
23540;DHT22;11947;50.810;4.394;2023-11-21T15:06:40;11.40;99.90
23540;DHT22;11947;50.810;4.394;2023-11-21T15:09:08;11.50;99.90
23540;DHT22;11947;50.810;4.394;2023-11-21T15:11:36;11.60;99.90
23540;DHT22;11947;50.810;4.394;2023-11-21T15:14:04;11.40;99.90
23540;DHT22;11947;50.810;4.394;2023-11-21T15:16:34;11.30;99.90
23540;DHT22;11947;50.810;4.394;2023-11-21T15:19:04;11.40;99.90
23540;DHT22;11947;50.810;4.394;2023-11-21T15:21:31;11.40;99.90
23540;DHT22;11947;50.810;4.394;2023-11-21T15:23:57;11.40;99.90
23540;DHT22;11947;50.810;4.394;2023-11-21T15:26:23;11.50;99.90
23540;DHT22;11947;50.810;4.394;2023-11-21T15:28:49;11.60;99.90
23540;DHT22;11947;50.810;4.394;2023-11-21T15:31:14;11.40;99.90
23540;DHT22;11947;50.810;4.394;2023-11-21T15:33:43;11.50;99.90
23540;DHT22;11947;50.810;4.394;2023-11-21T15:36:09;11.50;99.90
23540;DHT22;11947;50.810;4.394;2023-11-21T15:38:36;11.50;99.90
23540;DHT22;11947;50.810;4.394;2023-11-21T15:41:03;11.50;99.90
23540;DHT22;11947;50.810;4.394;2023-11-21T15:43:28;11.40;99.90
23540;DHT22;11947;50.810;4.394;2023-11-21T15:45:54;11.40;99.90
23540;DHT22;11947;50.810;4.394;2023-11-21T15:48:21;11.40;99.90
23540;DHT22;11947;50.810;4.394;2023-11-21T15:50:46;11.60;99.90
23540;DHT22;11947;50.810;4.394;2023-11-21T15:53:13;11.50;99.90